FNCA

Cabinda Airport

Cabinda, Angola
METAR FNCA 211700Z 23007KT 9999 SCT020 30/21 Q1010
Observed Flight Rules
Jan-21 @ 17:00 UTC (12 hours ago) Visual Flight Rules
Wind Visibility Clouds
230° at 7 knots 10,000+ meters
  • Scattered at 2,000' AGL
Temperatures Readings
Current 30°C / 86°F
Dewpoint 21°C / 70°F
Humidity 59%
Altimeter 29.82" Hg
Pressure 1009.92 hPa
Elevation 20
METAR FNCA 211700Z 23007KT 9999 SCT020 30/21 Q1010
Observed Flight Rules
Jan-21 @ 17:00 UTC
(12 hours ago)
VFR
Wind Visibility
230° at 7 knots 10,000+ meters
Clouds
  • Scattered at 2,000' AGL
Temperature Dewpoint
30°C / 86°F 21°C / 70°F
Humidity Altimeter Pressure
59% 29.82" Hg 1009.92 hPa